METAR Data
IDs: Format: Raw Decoded Include TAF

Data at: 2127 UTC 23 Oct 2021

EGGD 232120Z AUTO 17008KT 9999 OVC039 11/06 Q1020